首页
METAR-TAF:

METAR-TAF

机场 :

Air_Force_Base

Plattsburgh, 紐約州, 美国

纬度: 44-39N, 经度: 073-28W, 海拔: 72米

当前天气观测

该预报发布于1小时和10分钟前的07:53 UTC
静风
温度 16°C
湿度 94%
气压 1014 hPa
能見度: 16.1公里
天空无云

METAR: KPBG 260753Z AUTO 00000KT 10SM CLR 16/15 A2994 RMK AO2 SLP139 T01560150

时间: 05:03 (09:03 UTC)

预报

该预报发布于3小时和28分钟前的05:35 UTC
预报有效从26日的 06点(UTC)到 27日的 06点(UTC)
风速2节,风向多变
能見度: 10公里
少量云层高于8000英尺
从 26日的 1200点(UTC)
风速8节,风向东南
能見度: 10公里
少量云层高于9000英尺
从 26日的 2000点(UTC)
风速8节,风向东南
能見度: 10公里
散云层高于6000英尺
散云层高于10000英尺
附近有阵雨
从 27日的 0000点(UTC)
风速2节,风向多变
能見度: 10公里
少量云层高于10000英尺

TAF: KPBG 260535Z 2606/2706 VRB02KT P6SM FEW080 FM261200 14008KT P6SM FEW090 FM262000 13008KT P6SM VCSH SCT060 SCT100 FM270000 VRB02KT P6SM FEW100

超过4000个机场的气象观测和天气预报(METAR&TAF报告)。

可查询的气象台以黄色和红色小点在地图上表示。

将鼠标移到小点上方,可查看气象台名称。

然后点击查看天气观测和预报。

如需切换地图:点击带黑十字的绿色按钮放大地图;点击带横线的绿色按钮缩小地图;或者点击绿色箭头查看邻近地区的地图。


METAR-TAF: